Brussels, Belgium

1:52 PM CEST on July 28, 2015 (GMT +0200)
Berg | | Change Station
CLOSE
Current Station
Personal Weather Station
Location: Kampenhout, VLAAMS BRABANT
Elevation: 54 ft
Nearby Weather Stations

Elev 54 ft 50.93 °N, 4.53 °E | Updated 9 minutes ago

Mostly Cloudy
Mostly Cloudy
62.8 °F
Feels Like 62.8 °F
N
7.0
Wind Variable Wind from SW
Gusts 12.0 mph

Today
High -- | Low -- °F
--% Chance of Precip.
Yesterday
High -- | Low -- °F
Precip. -- in
6:01 AM 9:34 PM
Waxing Gibbous, 89% visible
Pressure 29.74 in
Visibility 6.2 miles
Clouds Few 2200 ft
Scattered Clouds 3400 ft
Mostly Cloudy 4800 ft
Dew Point 54 °F
Humidity 74%
Rainfall 0.04 in
Snow Depth Not available.
UV 0.7 out of 12
Pollen Not available.
Air Quality Not available.
Flu Activity Not available.
METAR EBBE 281125Z 23007KT 9999 FEW022 SCT034 BKN048 15/12 Q1007 BLU BLU TEMPO WHT

More Conditions Fewer Conditions

Pressure 29.74 in
Visibility 6.2 miles
Clouds Few 2200 ft
Scattered Clouds 3400 ft
Mostly Cloudy 4800 ft
Dew Point 54 °F
Humidity 74%
Rainfall 0.04 in
Snow Depth Not available.
UV 0.7 out of 12
Pollen Not available.
Air Quality Not available.
Flu Activity Not available.
METAR EBBE 281125Z 23007KT 9999 FEW022 SCT034 BKN048 15/12 Q1007 BLU BLU TEMPO WHT

More Conditions Fewer Conditions

10-Day Weather Forecast

×

Almanac

Astronomy

Jul. 28, 2015 Rise Set
Actual Time
Civil Twilight
Nautical Twilight
Astronomical Twilight
Moon
Length of Visible Light
Length of Day
Tomorrow will be .
, % of the Moon is Illuminated

Today's Extremes

Country Highs Country Lows

Community

WunderPhotos

Upload Photos

1,841,808 photos uploaded!

WunderBlogs® & News

Nearby

Air Quality

  Air Quality AQ Index Pollutant
Not available.

Snow Depth

Station Depth Elevation

Earthquake Activity

City Distance Mag. Time & Date
Minimum magnitude displayed is 2.5.

Coastal Water Temperatures

Place Temperature

Stations

Nearby Weather Stations

Station Location Temp. Windchill Dew Point Humidity Wind Precip. Elev Updated Type